Elizabeth Mc Allister — WDB7652 — position and weather

sailwx.info

Track history (hours):
 
Tides and Currents Weather Stations Pressure Air Temp Water Temp Dewpoint Dewpoint Depression Visibility Wind Speed Wind Dir Waves Ship Positions

Elizabeth Mc Allister

Owner: MC ALLISTER TOWING & TRANSPORTATION INC, NEW YORK, NY. More information available from US FCC via Universal Licensing System and Coast Guard Vessel Documentation Center.

Last reported at 2015-Jan-25 16:33 UTC. Time now 2015-Jan-30 16:59 UTC.
Position N 40°38' W 074°10'.

Length 31 m.

Type: Tug. MMSI: 366945680.

Date/timePositionNaut miles runAvg speedWind from/ knotsBaromVisibWave heightAir tempDewpointWater temp
2015-Jan-25 16:33N 40°38' W 074°10'0 0.0
2015-Jan-25 15:32N 40°38' W 074°10'0 0.0
2015-Jan-25 14:28N 40°38' W 074°10'0 0.0
2015-Jan-25 13:33N 40°38' W 074°10'0 0.0
2015-Jan-25 12:33N 40°38' W 074°10'0 0.0
2015-Jan-25 11:17N 40°38' W 074°10'0 0.0
2015-Jan-25 10:27N 40°38' W 074°10'0 0.0
2015-Jan-25 09:29N 40°38' W 074°10'0 0.0
2015-Jan-25 08:33N 40°38' W 074°10'0 0.0
2015-Jan-25 06:19N 40°38' W 074°10'0 0.0
2015-Jan-25 05:15N 40°38' W 074°10'0 0.0
2015-Jan-25 04:32N 40°38' W 074°10'0 0.0
2015-Jan-25 03:33N 40°38' W 074°10'0 0.0
2015-Jan-25 02:33N 40°38' W 074°10'0 0.0
2015-Jan-25 01:32N 40°38' W 074°10'0 0.0
2015-Jan-25 00:33N 40°38' W 074°10'0 0.0
2015-Jan-24 23:33N 40°38' W 074°10'0 0.0
2015-Jan-24 22:27N 40°38' W 074°10'0 0.0
2015-Jan-24 21:33N 40°38' W 074°10'0 0.0
2015-Jan-24 20:33N 40°38' W 074°10'0 0.0
2015-Jan-24 19:33N 40°38' W 074°10'0 0.0
2015-Jan-24 18:33N 40°38' W 074°10'0 0.0
2015-Jan-24 17:33N 40°38' W 074°10'2 1.8
2015-Jan-24 16:22N 40°37' W 074°12'0 0.3
2015-Jan-24 15:31N 40°37' W 074°12'3 3.1
2015-Jan-24 14:33N 40°39' W 074°09'2 2.1
2015-Jan-24 13:33N 40°41' W 074°09'2 2.5
2015-Jan-24 12:33N 40°38' W 074°10'0 0.0
2015-Jan-24 08:10N 40°38' W 074°10'0 0.0
2015-Jan-24 07:17N 40°38' W 074°10'0 0.0
2015-Jan-24 05:25N 40°38' W 074°10'0 0.0
2015-Jan-24 04:33N 40°38' W 074°10'0 0.0
2015-Jan-24 03:33N 40°38' W 074°10'0 0.0
2015-Jan-24 02:28N 40°38' W 074°10'0 0.0
2015-Jan-24 01:29N 40°38' W 074°10'0 0.0
2015-Jan-24 00:32N 40°38' W 074°10'0 0.0
2015-Jan-23 23:33N 40°38' W 074°10'0 0.0
2015-Jan-23 22:28N 40°38' W 074°10'2 2.3
2015-Jan-23 21:32N 40°40' W 074°08'2 2.2
2015-Jan-23 20:33N 40°39' W 074°06'1 0.9
2015-Jan-23 19:32N 40°39' W 074°07'2 1.7
2015-Jan-23 18:24N 40°38' W 074°10'0 0.0
2015-Jan-23 17:28N 40°38' W 074°10'2 1.0
2015-Jan-23 15:27N 40°37' W 074°12'4 4.9
2015-Jan-23 14:33N 40°39' W 074°07'1 0.7
2015-Jan-23 13:33N 40°39' W 074°07'2 1.9
2015-Jan-23 12:33N 40°38' W 074°10'0 0.0
2015-Jan-23 11:33N 40°38' W 074°10'1 0.9
2015-Jan-23 10:33N 40°39' W 074°09'1 0.5
2015-Jan-23 09:33N 40°40' W 074°09'1 1.4
2015-Jan-23 08:33N 40°38' W 074°10'0 0.0
2015-Jan-23 07:32N 40°38' W 074°10'0 0.0
2015-Jan-23 06:33N 40°38' W 074°10'0 0.0
2015-Jan-23 05:33N 40°38' W 074°10'0 0.0
2015-Jan-23 04:33N 40°38' W 074°10'0 0.0
2015-Jan-23 03:31N 40°38' W 074°10'0 0.0
2015-Jan-23 02:33N 40°38' W 074°10'0 0.0
2015-Jan-23 01:33N 40°38' W 074°10'3 3.2
2015-Jan-23 00:33N 40°41' W 074°08'3 2.7
2015-Jan-22 23:33N 40°39' W 074°07'2 1.6
2015-Jan-22 22:33N 40°40' W 074°09'2 1.8
2015-Jan-22 21:33N 40°39' W 074°07'0 0.3
2015-Jan-22 20:33N 40°39' W 074°07'0 0.5
2015-Jan-22 19:33N 40°39' W 074°06'3 3.1
2015-Jan-22 18:33N 40°39' W 074°10'0 0.0
2015-Jan-22 17:33N 40°39' W 074°10'0 0.0
2015-Jan-22 16:33N 40°39' W 074°10'0 0.0
2015-Jan-22 15:33N 40°39' W 074°10'0 0.0
2015-Jan-22 14:31N 40°39' W 074°10'2 2.1
2015-Jan-22 13:31N 40°39' W 074°07'1 1.4
2015-Jan-22 12:33N 40°39' W 074°09'1 0.9
2015-Jan-22 11:33N 40°39' W 074°09'1 0.4
2015-Jan-22 10:10N 40°38' W 074°10'0 0.0
2015-Jan-22 09:33N 40°38' W 074°10'0 0.0
2015-Jan-22 08:31N 40°38' W 074°10'0 0.0
2015-Jan-22 07:33N 40°38' W 074°10'0 0.0
2015-Jan-22 06:33N 40°38' W 074°10'0 0.0
2015-Jan-22 05:33N 40°38' W 074°10'0 0.0
2015-Jan-22 04:22N 40°38' W 074°10'0 0.0
2015-Jan-22 03:32N 40°38' W 074°10'0 0.0
2015-Jan-22 02:32N 40°38' W 074°10'0 0.0
2015-Jan-22 01:32N 40°38' W 074°10'0 0.0
2015-Jan-22 00:27N 40°38' W 074°10'0 0.0
2015-Jan-21 23:23N 40°38' W 074°10'0 0.0
2015-Jan-21 22:50N 40°38' W 074°10'0 0.0
2015-Jan-21 22:45N 40°38' W 074°10'0 0.0
2015-Jan-21 22:33N 40°38' W 074°10'0 0.0
2015-Jan-21 21:33N 40°38' W 074°10'0 0.0
2015-Jan-21 20:33N 40°38' W 074°10'0 0.0
2015-Jan-21 19:32N 40°38' W 074°10'4 3.0
2015-Jan-21 18:11N 40°35' W 074°13'4 3.9
2015-Jan-21 17:12N 40°32' W 074°15'1 0.3
2015-Jan-21 15:27N 40°31' W 074°15'8 2.9
2015-Jan-21 12:33N 40°39' W 074°10'2 2.4
2015-Jan-21 11:33N 40°40' W 074°08'3 3.5
2015-Jan-21 10:33N 40°39' W 074°04'2 1.7
2015-Jan-21 09:33N 40°39' W 074°06'3 2.8
2015-Jan-21 08:33N 40°38' W 074°10'0 0.0
2015-Jan-21 07:33N 40°38' W 074°10'0 0.0
2015-Jan-21 06:33N 40°38' W 074°10'0 0.0
2015-Jan-21 05:29N 40°38' W 074°10'0 0.0
2015-Jan-21 04:31N 40°38' W 074°10'0 0.0
2015-Jan-21 03:31N 40°38' W 074°10'0 0.0
2015-Jan-21 02:33N 40°38' W 074°10'0 0.0
2015-Jan-21 01:33N 40°38' W 074°10'0 0.0
2015-Jan-21 00:33N 40°38' W 074°10'0 0.0
2015-Jan-20 23:33N 40°38' W 074°10'0 0.0
2015-Jan-20 22:33N 40°38' W 074°10'0 0.0
2015-Jan-20 21:33N 40°38' W 074°10'0 0.0
2015-Jan-20 20:33N 40°38' W 074°10'0 0.0
2015-Jan-20 19:33N 40°38' W 074°10'0 0.0
2015-Jan-20 18:33N 40°38' W 074°10'0 0.0
2015-Jan-20 17:33N 40°38' W 074°10'0 0.1
2015-Jan-20 16:33N 40°39' W 074°10'0 0.1
2015-Jan-20 15:33N 40°38' W 074°10'2 2.3
2015-Jan-20 14:30N 40°39' W 074°07'2 2.5
2015-Jan-20 13:32N 40°38' W 074°10'0 0.0
2015-Jan-20 12:33N 40°38' W 074°10'2 2.3
2015-Jan-20 11:33N 40°41' W 074°09'2 1.6
2015-Jan-20 10:33N 40°39' W 074°09'5 4.9
2015-Jan-20 09:33N 40°37' W 074°03'5 5.2
2015-Jan-20 08:32N 40°38' W 074°10'0 0.2
2015-Jan-20 07:33N 40°38' W 074°10'0 0.0
2015-Jan-20 06:33N 40°38' W 074°10'0 0.0
2015-Jan-20 05:31N 40°38' W 074°10'0 0.0
2015-Jan-20 04:16N 40°38' W 074°10'0 0.0
2015-Jan-20 03:21N 40°38' W 074°10'0 0.0
2015-Jan-20 02:32N 40°38' W 074°10'0 0.0
2015-Jan-20 01:29N 40°38' W 074°10'0 0.0
2015-Jan-20 00:31N 40°38' W 074°10'0 0.0
2015-Jan-19 23:14N 40°38' W 074°10'0 0.0
2015-Jan-19 22:30N 40°38' W 074°10'0 0.0
2015-Jan-19 21:30N 40°38' W 074°10'3 1.4
2015-Jan-19 19:12N 40°36' W 074°12'3 1.5
2015-Jan-19 17:06N 40°33' W 074°15'5 7.7
2015-Jan-19 16:26N 40°38' W 074°12'2 2.3
2015-Jan-19 15:33N 40°38' W 074°09'2 1.5
2015-Jan-19 14:33N 40°40' W 074°09'5 5.1
2015-Jan-19 13:33N 40°37' W 074°03'0 0.2
2015-Jan-19 12:33N 40°37' W 074°03'0 0.1
2015-Jan-19 11:33N 40°37' W 074°03'1 0.6
2015-Jan-19 10:33N 40°36' W 074°03'6 2.3
2015-Jan-19 08:04N 40°38' W 074°10'0 0.0
2015-Jan-19 06:29N 40°38' W 074°10'0 0.0
2015-Jan-19 05:28N 40°38' W 074°10'0 0.0
2015-Jan-19 02:32N 40°38' W 074°10'0 0.0
2015-Jan-19 01:18N 40°38' W 074°10'0 0.0
2015-Jan-19 00:21N 40°38' W 074°10'0 0.0
2015-Jan-18 23:27N 40°38' W 074°10'0 0.0
2015-Jan-18 22:13N 40°38' W 074°10'0 0.0
2015-Jan-18 21:32N 40°38' W 074°10'0 0.0
2015-Jan-18 20:33N 40°38' W 074°10'0 0.0
2015-Jan-18 19:29N 40°38' W 074°10'0 0.0
2015-Jan-18 18:31N 40°38' W 074°10'0 0.0
2015-Jan-18 17:16N 40°38' W 074°10'0 0.0
2015-Jan-18 16:24N 40°38' W 074°10'3 3.1
2015-Jan-18 15:32N 40°41' W 074°09'0 0.2
2015-Jan-18 14:29N 40°41' W 074°09'3 3.0
2015-Jan-18 13:33N 40°39' W 074°07'2 2.5
2015-Jan-18 12:33N 40°41' W 074°09'1 1.0
2015-Jan-18 11:33N 40°40' W 074°09'2 1.5
2015-Jan-18 10:31N 40°38' W 074°10'0 0.0
2015-Jan-18 09:33N 40°38' W 074°10'0 0.0
2015-Jan-18 08:33N 40°38' W 074°10'0 0.0
2015-Jan-18 07:33N 40°38' W 074°10'0 0.0
2015-Jan-18 06:33N 40°38' W 074°10'0 0.0
2015-Jan-18 05:33N 40°38' W 074°10'1 0.6
2015-Jan-18 04:33N 40°39' W 074°09'0 0.1
2015-Jan-18 03:32N 40°39' W 074°09'1 0.5
2015-Jan-18 02:27N 40°38' W 074°10'0 0.0
2015-Jan-18 01:33N 40°38' W 074°10'0 0.0
2015-Jan-18 00:33N 40°38' W 074°10'0 0.0
2015-Jan-17 23:33N 40°38' W 074°10'0 0.0
2015-Jan-17 22:33N 40°38' W 074°10'0 0.0
2015-Jan-17 21:33N 40°38' W 074°10'0 0.0
2015-Jan-17 20:33N 40°38' W 074°10'0 0.0
2015-Jan-17 19:32N 40°38' W 074°10'0 0.0
2015-Jan-17 18:33N 40°38' W 074°10'0 0.0
2015-Jan-17 17:33N 40°38' W 074°10'1 0.6
2015-Jan-17 16:07N 40°39' W 074°09'0 0.0
2015-Jan-17 15:33N 40°38' W 074°09'1 0.9
2015-Jan-17 14:29N 40°38' W 074°10'0 0.0
2015-Jan-17 13:33N 40°38' W 074°10'2 2.2
2015-Jan-17 12:33N 40°40' W 074°08'2 1.8
2015-Jan-17 11:33N 40°38' W 074°08'2 1.9
2015-Jan-17 10:32N 40°40' W 074°08'2 2.2
2015-Jan-17 09:33N 40°38' W 074°10'0 0.1
2015-Jan-17 08:33N 40°38' W 074°10'0 0.0
2015-Jan-17 07:33N 40°38' W 074°10'0 0.0
2015-Jan-17 06:33N 40°38' W 074°10'0 0.0
2015-Jan-17 05:33N 40°38' W 074°10'0 0.0
2015-Jan-17 04:33N 40°38' W 074°10'0 0.0
2015-Jan-17 03:33N 40°38' W 074°10'0 0.0
2015-Jan-17 02:33N 40°38' W 074°10'0 0.0
2015-Jan-17 01:33N 40°38' W 074°10'0 0.0
2015-Jan-17 00:31N 40°38' W 074°10'0 0.0
2015-Jan-16 23:33N 40°38' W 074°10'2 2.0
2015-Jan-16 22:33N 40°39' W 074°07'3 3.2
2015-Jan-16 21:33N 40°41' W 074°04'5 4.9
2015-Jan-16 20:33N 40°38' W 074°10'0 0.0
2015-Jan-16 19:33N 40°38' W 074°10'6 2.9
2015-Jan-16 17:25N 40°33' W 074°14'0 0.0
2015-Jan-16 16:31N 40°33' W 074°14'4 3.9
2015-Jan-16 15:32N 40°37' W 074°12'2 2.5
2015-Jan-16 14:33N 40°38' W 074°10'0 0.0
2015-Jan-16 13:33N 40°38' W 074°10'0 0.0
2015-Jan-16 12:33N 40°38' W 074°10'0 0.0
2015-Jan-16 11:33N 40°38' W 074°10'0 0.0
2015-Jan-16 10:33N 40°38' W 074°10'0 0.0
2015-Jan-16 09:33N 40°38' W 074°10'0 0.0
2015-Jan-16 08:33N 40°38' W 074°10'0 0.0
2015-Jan-16 07:33N 40°38' W 074°10'0 0.0
2015-Jan-16 06:33N 40°38' W 074°10'0 0.0
2015-Jan-16 05:33N 40°38' W 074°10'0 0.0
2015-Jan-16 04:33N 40°38' W 074°10'0 0.0
2015-Jan-16 03:33N 40°38' W 074°10'0 0.0
2015-Jan-16 02:33N 40°38' W 074°10'0 0.0
2015-Jan-16 01:33N 40°38' W 074°10'0 0.0
2015-Jan-16 00:33N 40°38' W 074°10'0 0.0
2015-Jan-15 23:33N 40°38' W 074°10'3 3.0
2015-Jan-15 22:33N 40°39' W 074°06'2 2.0
2015-Jan-15 21:33N 40°39' W 074°03'1 1.0
2015-Jan-15 20:33N 40°40' W 074°04'4 4.3
2015-Jan-15 19:33N 40°39' W 074°10'1 0.9
2015-Jan-15 18:32N 40°40' W 074°09'0 0.0
2015-Jan-15 17:32N 40°40' W 074°09'  
Track history (hours):
 
Tides and Currents Weather Stations Pressure Air Temp Water Temp Dewpoint Dewpoint Depression Visibility Wind Speed Wind Dir Waves Ship Positions

Elizabeth Mc Allister

Owner: MC ALLISTER TOWING & TRANSPORTATION INC, NEW YORK, NY. More information available from US FCC via Universal Licensing System and Coast Guard Vessel Documentation Center.

Last reported at 2015-Jan-25 16:33 UTC. Time now 2015-Jan-30 16:59 UTC.
Position N 40°38' W 074°10'.

Length 31 m.

Type: Tug. MMSI: 366945680.

Date/timePositionNaut miles runAvg speedWind from/ knotsBaromVisibWave heightAir tempDewpointWater temp
2015-Jan-25 16:33N 40°38' W 074°10'0 0.0
2015-Jan-25 15:32N 40°38' W 074°10'0 0.0
2015-Jan-25 14:28N 40°38' W 074°10'0 0.0
2015-Jan-25 13:33N 40°38' W 074°10'0 0.0
2015-Jan-25 12:33N 40°38' W 074°10'0 0.0
2015-Jan-25 11:17N 40°38' W 074°10'0 0.0
2015-Jan-25 10:27N 40°38' W 074°10'0 0.0
2015-Jan-25 09:29N 40°38' W 074°10'0 0.0
2015-Jan-25 08:33N 40°38' W 074°10'0 0.0
2015-Jan-25 06:19N 40°38' W 074°10'0 0.0
2015-Jan-25 05:15N 40°38' W 074°10'0 0.0
2015-Jan-25 04:32N 40°38' W 074°10'0 0.0
2015-Jan-25 03:33N 40°38' W 074°10'0 0.0
2015-Jan-25 02:33N 40°38' W 074°10'0 0.0
2015-Jan-25 01:32N 40°38' W 074°10'0 0.0
2015-Jan-25 00:33N 40°38' W 074°10'0 0.0
2015-Jan-24 23:33N 40°38' W 074°10'0 0.0
2015-Jan-24 22:27N 40°38' W 074°10'0 0.0
2015-Jan-24 21:33N 40°38' W 074°10'0 0.0
2015-Jan-24 20:33N 40°38' W 074°10'0 0.0
2015-Jan-24 19:33N 40°38' W 074°10'0 0.0
2015-Jan-24 18:33N 40°38' W 074°10'0 0.0
2015-Jan-24 17:33N 40°38' W 074°10'2 1.8
2015-Jan-24 16:22N 40°37' W 074°12'0 0.3
2015-Jan-24 15:31N 40°37' W 074°12'3 3.1
2015-Jan-24 14:33N 40°39' W 074°09'2 2.1
2015-Jan-24 13:33N 40°41' W 074°09'2 2.5
2015-Jan-24 12:33N 40°38' W 074°10'0 0.0
2015-Jan-24 08:10N 40°38' W 074°10'0 0.0
2015-Jan-24 07:17N 40°38' W 074°10'0 0.0
2015-Jan-24 05:25N 40°38' W 074°10'0 0.0
2015-Jan-24 04:33N 40°38' W 074°10'0 0.0
2015-Jan-24 03:33N 40°38' W 074°10'0 0.0
2015-Jan-24 02:28N 40°38' W 074°10'0 0.0
2015-Jan-24 01:29N 40°38' W 074°10'0 0.0
2015-Jan-24 00:32N 40°38' W 074°10'0 0.0
2015-Jan-23 23:33N 40°38' W 074°10'0 0.0
2015-Jan-23 22:28N 40°38' W 074°10'2 2.3
2015-Jan-23 21:32N 40°40' W 074°08'2 2.2
2015-Jan-23 20:33N 40°39' W 074°06'1 0.9
2015-Jan-23 19:32N 40°39' W 074°07'2 1.7
2015-Jan-23 18:24N 40°38' W 074°10'0 0.0
2015-Jan-23 17:28N 40°38' W 074°10'2 1.0
2015-Jan-23 15:27N 40°37' W 074°12'4 4.9
2015-Jan-23 14:33N 40°39' W 074°07'1 0.7
2015-Jan-23 13:33N 40°39' W 074°07'2 1.9
2015-Jan-23 12:33N 40°38' W 074°10'0 0.0
2015-Jan-23 11:33N 40°38' W 074°10'1 0.9
2015-Jan-23 10:33N 40°39' W 074°09'1 0.5
2015-Jan-23 09:33N 40°40' W 074°09'1 1.4
2015-Jan-23 08:33N 40°38' W 074°10'0 0.0
2015-Jan-23 07:32N 40°38' W 074°10'0 0.0
2015-Jan-23 06:33N 40°38' W 074°10'0 0.0
2015-Jan-23 05:33N 40°38' W 074°10'0 0.0
2015-Jan-23 04:33N 40°38' W 074°10'0 0.0
2015-Jan-23 03:31N 40°38' W 074°10'0 0.0
2015-Jan-23 02:33N 40°38' W 074°10'0 0.0
2015-Jan-23 01:33N 40°38' W 074°10'3 3.2
2015-Jan-23 00:33N 40°41' W 074°08'3 2.7
2015-Jan-22 23:33N 40°39' W 074°07'2 1.6
2015-Jan-22 22:33N 40°40' W 074°09'2 1.8
2015-Jan-22 21:33N 40°39' W 074°07'0 0.3
2015-Jan-22 20:33N 40°39' W 074°07'0 0.5
2015-Jan-22 19:33N 40°39' W 074°06'3 3.1
2015-Jan-22 18:33N 40°39' W 074°10'0 0.0
2015-Jan-22 17:33N 40°39' W 074°10'0 0.0
2015-Jan-22 16:33N 40°39' W 074°10'0 0.0
2015-Jan-22 15:33N 40°39' W 074°10'0 0.0
2015-Jan-22 14:31N 40°39' W 074°10'2 2.1
2015-Jan-22 13:31N 40°39' W 074°07'1 1.4
2015-Jan-22 12:33N 40°39' W 074°09'1 0.9
2015-Jan-22 11:33N 40°39' W 074°09'1 0.4
2015-Jan-22 10:10N 40°38' W 074°10'0 0.0
2015-Jan-22 09:33N 40°38' W 074°10'0 0.0
2015-Jan-22 08:31N 40°38' W 074°10'0 0.0
2015-Jan-22 07:33N 40°38' W 074°10'0 0.0
2015-Jan-22 06:33N 40°38' W 074°10'0 0.0
2015-Jan-22 05:33N 40°38' W 074°10'0 0.0
2015-Jan-22 04:22N 40°38' W 074°10'0 0.0
2015-Jan-22 03:32N 40°38' W 074°10'0 0.0
2015-Jan-22 02:32N 40°38' W 074°10'0 0.0
2015-Jan-22 01:32N 40°38' W 074°10'0 0.0
2015-Jan-22 00:27N 40°38' W 074°10'0 0.0
2015-Jan-21 23:23N 40°38' W 074°10'0 0.0
2015-Jan-21 22:50N 40°38' W 074°10'0 0.0
2015-Jan-21 22:45N 40°38' W 074°10'0 0.0
2015-Jan-21 22:33N 40°38' W 074°10'0 0.0
2015-Jan-21 21:33N 40°38' W 074°10'0 0.0
2015-Jan-21 20:33N 40°38' W 074°10'0 0.0
2015-Jan-21 19:32N 40°38' W 074°10'4 3.0
2015-Jan-21 18:11N 40°35' W 074°13'4 3.9
2015-Jan-21 17:12N 40°32' W 074°15'1 0.3
2015-Jan-21 15:27N 40°31' W 074°15'8 2.9
2015-Jan-21 12:33N 40°39' W 074°10'2 2.4
2015-Jan-21 11:33N 40°40' W 074°08'3 3.5
2015-Jan-21 10:33N 40°39' W 074°04'2 1.7
2015-Jan-21 09:33N 40°39' W 074°06'3 2.8
2015-Jan-21 08:33N 40°38' W 074°10'0 0.0
2015-Jan-21 07:33N 40°38' W 074°10'0 0.0
2015-Jan-21 06:33N 40°38' W 074°10'0 0.0
2015-Jan-21 05:29N 40°38' W 074°10'0 0.0
2015-Jan-21 04:31N 40°38' W 074°10'0 0.0
2015-Jan-21 03:31N 40°38' W 074°10'0 0.0
2015-Jan-21 02:33N 40°38' W 074°10'0 0.0
2015-Jan-21 01:33N 40°38' W 074°10'0 0.0
2015-Jan-21 00:33N 40°38' W 074°10'0 0.0
2015-Jan-20 23:33N 40°38' W 074°10'0 0.0
2015-Jan-20 22:33N 40°38' W 074°10'0 0.0
2015-Jan-20 21:33N 40°38' W 074°10'0 0.0
2015-Jan-20 20:33N 40°38' W 074°10'0 0.0
2015-Jan-20 19:33N 40°38' W 074°10'0 0.0
2015-Jan-20 18:33N 40°38' W 074°10'0 0.0
2015-Jan-20 17:33N 40°38' W 074°10'0 0.1
2015-Jan-20 16:33N 40°39' W 074°10'0 0.1
2015-Jan-20 15:33N 40°38' W 074°10'2 2.3
2015-Jan-20 14:30N 40°39' W 074°07'2 2.5
2015-Jan-20 13:32N 40°38' W 074°10'0 0.0
2015-Jan-20 12:33N 40°38' W 074°10'2 2.3
2015-Jan-20 11:33N 40°41' W 074°09'2 1.6
2015-Jan-20 10:33N 40°39' W 074°09'5 4.9
2015-Jan-20 09:33N 40°37' W 074°03'5 5.2
2015-Jan-20 08:32N 40°38' W 074°10'0 0.2
2015-Jan-20 07:33N 40°38' W 074°10'0 0.0
2015-Jan-20 06:33N 40°38' W 074°10'0 0.0
2015-Jan-20 05:31N 40°38' W 074°10'0 0.0
2015-Jan-20 04:16N 40°38' W 074°10'0 0.0
2015-Jan-20 03:21N 40°38' W 074°10'0 0.0
2015-Jan-20 02:32N 40°38' W 074°10'0 0.0
2015-Jan-20 01:29N 40°38' W 074°10'0 0.0
2015-Jan-20 00:31N 40°38' W 074°10'0 0.0
2015-Jan-19 23:14N 40°38' W 074°10'0 0.0
2015-Jan-19 22:30N 40°38' W 074°10'0 0.0
2015-Jan-19 21:30N 40°38' W 074°10'3 1.4
2015-Jan-19 19:12N 40°36' W 074°12'3 1.5
2015-Jan-19 17:06N 40°33' W 074°15'5 7.7
2015-Jan-19 16:26N 40°38' W 074°12'2 2.3
2015-Jan-19 15:33N 40°38' W 074°09'2 1.5
2015-Jan-19 14:33N 40°40' W 074°09'5 5.1
2015-Jan-19 13:33N 40°37' W 074°03'0 0.2
2015-Jan-19 12:33N 40°37' W 074°03'0 0.1
2015-Jan-19 11:33N 40°37' W 074°03'1 0.6
2015-Jan-19 10:33N 40°36' W 074°03'6 2.3
2015-Jan-19 08:04N 40°38' W 074°10'0 0.0
2015-Jan-19 06:29N 40°38' W 074°10'0 0.0
2015-Jan-19 05:28N 40°38' W 074°10'0 0.0
2015-Jan-19 02:32N 40°38' W 074°10'0 0.0
2015-Jan-19 01:18N 40°38' W 074°10'0 0.0
2015-Jan-19 00:21N 40°38' W 074°10'0 0.0
2015-Jan-18 23:27N 40°38' W 074°10'0 0.0
2015-Jan-18 22:13N 40°38' W 074°10'0 0.0
2015-Jan-18 21:32N 40°38' W 074°10'0 0.0
2015-Jan-18 20:33N 40°38' W 074°10'0 0.0
2015-Jan-18 19:29N 40°38' W 074°10'0 0.0
2015-Jan-18 18:31N 40°38' W 074°10'0 0.0
2015-Jan-18 17:16N 40°38' W 074°10'0 0.0
2015-Jan-18 16:24N 40°38' W 074°10'3 3.1
2015-Jan-18 15:32N 40°41' W 074°09'0 0.2
2015-Jan-18 14:29N 40°41' W 074°09'3 3.0
2015-Jan-18 13:33N 40°39' W 074°07'2 2.5
2015-Jan-18 12:33N 40°41' W 074°09'1 1.0
2015-Jan-18 11:33N 40°40' W 074°09'2 1.5
2015-Jan-18 10:31N 40°38' W 074°10'0 0.0
2015-Jan-18 09:33N 40°38' W 074°10'0 0.0
2015-Jan-18 08:33N 40°38' W 074°10'0 0.0
2015-Jan-18 07:33N 40°38' W 074°10'0 0.0
2015-Jan-18 06:33N 40°38' W 074°10'0 0.0
2015-Jan-18 05:33N 40°38' W 074°10'1 0.6
2015-Jan-18 04:33N 40°39' W 074°09'0 0.1
2015-Jan-18 03:32N 40°39' W 074°09'1 0.5
2015-Jan-18 02:27N 40°38' W 074°10'0 0.0
2015-Jan-18 01:33N 40°38' W 074°10'0 0.0
2015-Jan-18 00:33N 40°38' W 074°10'0 0.0
2015-Jan-17 23:33N 40°38' W 074°10'0 0.0
2015-Jan-17 22:33N 40°38' W 074°10'0 0.0
2015-Jan-17 21:33N 40°38' W 074°10'0 0.0
2015-Jan-17 20:33N 40°38' W 074°10'0 0.0
2015-Jan-17 19:32N 40°38' W 074°10'0 0.0
2015-Jan-17 18:33N 40°38' W 074°10'0 0.0
2015-Jan-17 17:33N 40°38' W 074°10'1 0.6
2015-Jan-17 16:07N 40°39' W 074°09'0 0.0
2015-Jan-17 15:33N 40°38' W 074°09'1 0.9
2015-Jan-17 14:29N 40°38' W 074°10'0 0.0
2015-Jan-17 13:33N 40°38' W 074°10'2 2.2
2015-Jan-17 12:33N 40°40' W 074°08'2 1.8
2015-Jan-17 11:33N 40°38' W 074°08'2 1.9
2015-Jan-17 10:32N 40°40' W 074°08'2 2.2
2015-Jan-17 09:33N 40°38' W 074°10'0 0.1
2015-Jan-17 08:33N 40°38' W 074°10'0 0.0
2015-Jan-17 07:33N 40°38' W 074°10'0 0.0
2015-Jan-17 06:33N 40°38' W 074°10'0 0.0
2015-Jan-17 05:33N 40°38' W 074°10'0 0.0
2015-Jan-17 04:33N 40°38' W 074°10'0 0.0
2015-Jan-17 03:33N 40°38' W 074°10'0 0.0
2015-Jan-17 02:33N 40°38' W 074°10'0 0.0
2015-Jan-17 01:33N 40°38' W 074°10'0 0.0
2015-Jan-17 00:31N 40°38' W 074°10'0 0.0
2015-Jan-16 23:33N 40°38' W 074°10'2 2.0
2015-Jan-16 22:33N 40°39' W 074°07'3 3.2
2015-Jan-16 21:33N 40°41' W 074°04'5 4.9
2015-Jan-16 20:33N 40°38' W 074°10'0 0.0
2015-Jan-16 19:33N 40°38' W 074°10'6 2.9
2015-Jan-16 17:25N 40°33' W 074°14'0 0.0
2015-Jan-16 16:31N 40°33' W 074°14'4 3.9
2015-Jan-16 15:32N 40°37' W 074°12'2 2.5
2015-Jan-16 14:33N 40°38' W 074°10'0 0.0
2015-Jan-16 13:33N 40°38' W 074°10'0 0.0
2015-Jan-16 12:33N 40°38' W 074°10'0 0.0
2015-Jan-16 11:33N 40°38' W 074°10'0 0.0
2015-Jan-16 10:33N 40°38' W 074°10'0 0.0
2015-Jan-16 09:33N 40°38' W 074°10'0 0.0
2015-Jan-16 08:33N 40°38' W 074°10'0 0.0
2015-Jan-16 07:33N 40°38' W 074°10'0 0.0
2015-Jan-16 06:33N 40°38' W 074°10'0 0.0
2015-Jan-16 05:33N 40°38' W 074°10'0 0.0
2015-Jan-16 04:33N 40°38' W 074°10'0 0.0
2015-Jan-16 03:33N 40°38' W 074°10'0 0.0
2015-Jan-16 02:33N 40°38' W 074°10'0 0.0
2015-Jan-16 01:33N 40°38' W 074°10'0 0.0
2015-Jan-16 00:33N 40°38' W 074°10'0 0.0
2015-Jan-15 23:33N 40°38' W 074°10'3 3.0
2015-Jan-15 22:33N 40°39' W 074°06'2 2.0
2015-Jan-15 21:33N 40°39' W 074°03'1 1.0
2015-Jan-15 20:33N 40°40' W 074°04'4 4.3
2015-Jan-15 19:33N 40°39' W 074°10'1 0.9
2015-Jan-15 18:32N 40°40' W 074°09'0 0.0
2015-Jan-15 17:32N 40°40' W 074°09'  

Dump ship's entire track history